createdAt,value
2022-11-12T00:01:01.761Z,87.22
2022-11-12T00:03:28.303Z,87.12
2022-11-12T00:05:54.937Z,87.11
2022-11-12T00:08:22.056Z,87.16
2022-11-12T00:10:48.840Z,86.90
2022-11-12T00:13:15.937Z,87.35
2022-11-12T00:15:42.629Z,86.97
2022-11-12T00:18:09.228Z,87.39
2022-11-12T00:20:35.850Z,87.22
2022-11-12T00:23:05.152Z,87.42
2022-11-12T00:25:31.839Z,87.68
2022-11-12T00:28:05.494Z,87.80
2022-11-12T00:30:36.568Z,87.64
2022-11-12T00:33:06.221Z,87.62
2022-11-12T00:35:33.538Z,87.68
2022-11-12T00:38:00.822Z,87.30
2022-11-12T00:40:27.845Z,87.57
2022-11-12T00:42:54.708Z,87.63
2022-11-12T00:45:21.903Z,87.73
2022-11-12T00:47:48.879Z,87.56
2022-11-12T00:50:16.298Z,87.45
2022-11-12T00:52:45.455Z,87.78
2022-11-12T00:55:11.993Z,87.62
2022-11-12T00:57:38.747Z,87.41
2022-11-12T01:00:09.475Z,87.74
2022-11-12T01:02:42.334Z,87.37
2022-11-12T01:05:12.308Z,87.54
2022-11-12T01:07:41.721Z,87.51
2022-11-12T01:10:09.664Z,87.36
2022-11-12T01:12:37.025Z,87.65
2022-11-12T01:15:05.900Z,87.72
2022-11-12T01:17:32.988Z,87.65
2022-11-12T01:19:59.709Z,87.56
2022-11-12T01:22:26.186Z,87.51
2022-11-12T01:24:55.017Z,87.48
2022-11-12T01:27:21.748Z,87.52
2022-11-12T01:29:48.543Z,87.57
2022-11-12T01:32:15.096Z,87.58
2022-11-12T01:34:41.632Z,87.70
2022-11-12T01:37:09.270Z,87.54
2022-11-12T01:39:38.183Z,87.74
2022-11-12T01:42:04.720Z,87.46
2022-11-12T01:44:35.186Z,87.59
2022-11-12T01:47:13.490Z,87.31
2022-11-12T01:50:06.388Z,87.52
2022-11-12T01:52:45.220Z,87.52
2022-11-12T01:55:15.841Z,87.77
2022-11-12T01:57:50.056Z,87.63
2022-11-12T02:00:17.621Z,87.41
2022-11-12T02:02:49.826Z,87.34
2022-11-12T02:05:18.272Z,87.66
2022-11-12T02:07:46.781Z,87.87
2022-11-12T02:10:14.693Z,87.72
2022-11-12T02:13:01.019Z,87.44
2022-11-12T02:15:27.896Z,87.62
2022-11-12T02:17:54.571Z,87.48
2022-11-12T02:20:21.316Z,87.58
2022-11-12T02:22:47.861Z,87.73
2022-11-12T02:25:22.412Z,87.49
2022-11-12T02:27:52.517Z,87.94
2022-11-12T02:30:30.573Z,87.37
2022-11-12T02:32:59.751Z,87.60
2022-11-12T02:35:26.431Z,87.51
2022-11-12T02:37:53.349Z,87.67
2022-11-12T02:40:20.110Z,87.76
2022-11-12T02:42:48.919Z,87.82
2022-11-12T02:45:16.602Z,87.75
2022-11-12T02:47:43.283Z,87.78
2022-11-12T02:50:10.925Z,88.08
2022-11-12T02:52:37.633Z,87.43
2022-11-12T02:55:04.495Z,87.98
2022-11-12T02:57:31.073Z,87.94
2022-11-12T02:59:57.576Z,87.83
2022-11-12T03:02:24.174Z,87.75
2022-11-12T03:04:50.726Z,87.68
2022-11-12T03:07:17.463Z,87.36
2022-11-12T03:09:44.057Z,87.42
2022-11-12T03:12:10.697Z,87.51
2022-11-12T03:14:37.237Z,87.54
2022-11-12T03:17:06.138Z,87.46
2022-11-12T03:19:32.706Z,87.99
2022-11-12T03:22:01.386Z,87.53
2022-11-12T03:24:28.230Z,87.95
2022-11-12T03:26:57.292Z,87.94
2022-11-12T03:29:23.810Z,88.12
2022-11-12T03:31:55.572Z,87.97
2022-11-12T03:34:22.162Z,87.57
2022-11-12T03:36:48.699Z,88.05
2022-11-12T03:39:15.275Z,88.04
2022-11-12T03:41:41.824Z,87.55
2022-11-12T03:44:08.331Z,87.94
2022-11-12T03:46:44.024Z,88.11
2022-11-12T03:49:10.955Z,88.09
2022-11-12T03:51:39.820Z,88.41
2022-11-12T03:54:06.616Z,88.05
2022-11-12T03:56:33.126Z,87.73
2022-11-12T03:58:59.775Z,87.93
2022-11-12T04:01:26.491Z,88.27
2022-11-12T04:03:52.974Z,87.87
2022-11-12T04:06:38.100Z,87.77
2022-11-12T04:09:04.841Z,87.89
2022-11-12T04:11:34.352Z,87.67
2022-11-12T04:14:01.032Z,88.05
2022-11-12T04:16:46.563Z,88.03
2022-11-12T04:19:32.152Z,87.55
2022-11-12T04:22:00.604Z,87.71
2022-11-12T04:24:55.222Z,88.50
2022-11-12T04:27:28.010Z,88.01
2022-11-12T04:30:16.178Z,88.02
2022-11-12T04:32:54.861Z,87.49
2022-11-12T04:35:26.098Z,87.83
2022-11-12T04:37:55.249Z,88.14
2022-11-12T04:40:45.946Z,87.99
2022-11-12T04:43:34.361Z,88.21
2022-11-12T04:46:02.573Z,88.42
2022-11-12T04:48:29.360Z,87.71
2022-11-12T04:51:01.715Z,88.00
2022-11-12T04:53:29.583Z,88.28
2022-11-12T04:55:58.243Z,88.08
2022-11-12T04:58:25.455Z,88.39
2022-11-12T05:00:52.359Z,88.49
2022-11-12T05:03:19.005Z,88.25
2022-11-12T05:05:45.538Z,88.36
2022-11-12T05:08:12.006Z,88.07
2022-11-12T05:10:38.485Z,87.99
2022-11-12T05:13:05.001Z,88.45
2022-11-12T05:15:31.513Z,88.25
2022-11-12T05:18:00.253Z,88.12
2022-11-12T05:20:26.802Z,88.03
2022-11-12T05:23:08.281Z,88.18
2022-11-12T05:25:35.898Z,87.61
2022-11-12T05:28:02.994Z,88.37
2022-11-12T05:30:29.498Z,88.22
2022-11-12T05:32:56.319Z,88.13
2022-11-12T05:35:22.833Z,88.48
2022-11-12T05:37:49.341Z,88.22
2022-11-12T05:40:15.920Z,88.22
2022-11-12T05:42:42.408Z,88.25
2022-11-12T05:45:11.801Z,88.93
2022-11-12T05:47:38.361Z,88.78
2022-11-12T05:50:05.287Z,88.62
2022-11-12T05:52:31.824Z,88.78
2022-11-12T05:54:58.368Z,88.87
2022-11-12T05:57:27.499Z,88.59
2022-11-12T05:59:53.978Z,88.79
2022-11-12T06:02:21.881Z,88.66
2022-11-12T06:04:48.404Z,88.55
2022-11-12T06:07:15.033Z,88.64
2022-11-12T06:09:41.578Z,88.96
2022-11-12T06:12:10.431Z,88.66
2022-11-12T06:14:37.359Z,88.47
2022-11-12T06:17:03.908Z,88.92
2022-11-12T06:19:30.456Z,89.12
2022-11-12T06:21:59.230Z,89.01
2022-11-12T06:24:27.493Z,88.49
2022-11-12T06:26:57.308Z,89.09
2022-11-12T06:29:26.153Z,88.81
2022-11-12T06:31:52.717Z,88.63
2022-11-12T06:34:19.266Z,88.93
2022-11-12T06:36:48.810Z,88.64
2022-11-12T06:39:15.308Z,88.79
2022-11-12T06:41:44.216Z,88.60
2022-11-12T06:44:14.674Z,88.41
2022-11-12T06:46:44.368Z,88.54
2022-11-12T06:49:10.905Z,88.76
2022-11-12T06:51:37.453Z,89.05
2022-11-12T06:54:04.182Z,88.67
2022-11-12T06:56:30.708Z,88.43
2022-11-12T06:58:57.378Z,88.80
2022-11-12T07:01:23.955Z,88.52
2022-11-12T07:03:54.432Z,88.61
2022-11-12T07:06:21.135Z,88.66
2022-11-12T07:08:49.151Z,88.49
2022-11-12T07:11:17.394Z,88.49
2022-11-12T07:13:44.552Z,88.32
2022-11-12T07:16:18.498Z,88.48
2022-11-12T07:18:48.280Z,88.44
2022-11-12T07:21:20.464Z,88.51
2022-11-12T07:23:48.103Z,88.29
2022-11-12T07:26:17.922Z,88.59
2022-11-12T07:28:45.944Z,88.45
2022-11-12T07:31:16.864Z,88.26
2022-11-12T07:33:44.723Z,88.08
2022-11-12T07:36:14.840Z,87.81
2022-11-12T07:38:50.237Z,88.08
2022-11-12T07:41:21.712Z,88.10
2022-11-12T07:43:50.407Z,87.68
2022-11-12T07:46:19.572Z,88.12
2022-11-12T07:48:46.932Z,87.86
2022-11-12T07:51:15.352Z,88.03
2022-11-12T07:53:57.751Z,87.68
2022-11-12T07:56:26.873Z,87.61
2022-11-12T07:58:53.388Z,87.47
2022-11-12T08:01:32.090Z,87.34
2022-11-12T08:04:04.888Z,87.66
2022-11-12T08:06:32.582Z,87.55
2022-11-12T08:09:01.855Z,87.68
2022-11-12T08:11:28.441Z,87.45
2022-11-12T08:13:55.038Z,87.52
2022-11-12T08:16:24.221Z,87.63
2022-11-12T08:18:50.930Z,87.49
2022-11-12T08:21:18.426Z,87.28
2022-11-12T08:23:48.315Z,87.41
2022-11-12T08:26:21.738Z,87.49
2022-11-12T08:28:50.551Z,87.36
2022-11-12T08:31:19.817Z,87.20
2022-11-12T08:33:46.412Z,87.51
2022-11-12T08:36:15.229Z,87.12
2022-11-12T08:38:42.838Z,86.97
2022-11-12T08:41:14.244Z,87.12
2022-11-12T08:43:42.122Z,86.92
2022-11-12T08:46:08.946Z,87.01
2022-11-12T08:48:35.956Z,86.78
2022-11-12T08:51:05.893Z,86.83
2022-11-12T08:53:32.956Z,86.96
2022-11-12T08:55:59.894Z,86.62
2022-11-12T08:58:27.050Z,86.53
2022-11-12T09:00:54.346Z,86.64
2022-11-12T09:03:23.385Z,86.29
2022-11-12T09:05:53.794Z,85.35
2022-11-12T09:08:23.651Z,84.14
2022-11-12T09:10:51.462Z,81.89
2022-11-12T09:13:20.382Z,80.98
2022-11-12T09:15:47.506Z,81.00
2022-11-12T09:18:16.422Z,80.41
2022-11-12T09:20:43.165Z,80.05
2022-11-12T09:23:12.028Z,79.86
2022-11-12T09:25:42.121Z,79.75
2022-11-12T09:28:17.850Z,79.10
2022-11-12T09:30:49.660Z,79.35
2022-11-12T09:33:34.376Z,79.21
2022-11-12T09:36:02.295Z,78.72
2022-11-12T09:38:31.553Z,78.48
2022-11-12T09:41:22.512Z,78.71
2022-11-12T09:43:56.988Z,78.34
2022-11-12T09:46:41.892Z,78.66
2022-11-12T09:49:17.351Z,78.38
2022-11-12T09:51:48.789Z,78.51
2022-11-12T09:54:23.592Z,78.19
2022-11-12T09:56:54.039Z,78.53
2022-11-12T09:59:22.644Z,78.60
2022-11-12T10:01:55.033Z,78.62
2022-11-12T10:04:26.267Z,78.32
2022-11-12T10:07:09.314Z,78.46
2022-11-12T10:09:58.893Z,78.35
2022-11-12T10:12:44.423Z,77.96
2022-11-12T10:16:06.872Z,77.86
2022-11-12T10:18:51.715Z,77.59
2022-11-12T10:21:45.655Z,77.20
2022-11-12T10:24:14.975Z,76.92
2022-11-12T10:26:41.538Z,76.75
2022-11-12T10:29:11.101Z,76.70
2022-11-12T10:31:38.959Z,76.39
2022-11-12T10:34:17.173Z,76.48
2022-11-12T10:36:48.875Z,76.37
2022-11-12T10:39:36.638Z,76.25
2022-11-12T10:42:08.295Z,76.20
2022-11-12T10:44:35.087Z,76.08
2022-11-12T10:47:25.569Z,76.23
2022-11-12T10:50:14.129Z,76.14
2022-11-12T10:52:53.716Z,75.88
2022-11-12T10:55:26.631Z,75.76
2022-11-12T10:58:09.936Z,75.45
2022-11-12T11:00:38.498Z,74.93
2022-11-12T11:03:25.738Z,74.87
2022-11-12T11:06:03.056Z,74.37
2022-11-12T11:08:47.977Z,73.83
2022-11-12T11:11:21.745Z,73.58
2022-11-12T11:13:55.366Z,73.26
2022-11-12T11:16:27.970Z,72.88
2022-11-12T11:18:58.088Z,72.53
2022-11-12T11:21:46.362Z,72.09
2022-11-12T11:24:30.017Z,71.80
2022-11-12T11:27:05.588Z,71.58
2022-11-12T11:29:50.512Z,71.15
2022-11-12T11:32:55.461Z,70.79
2022-11-12T11:35:37.101Z,70.50
2022-11-12T11:38:27.955Z,70.27
2022-11-12T11:41:19.720Z,69.93
2022-11-12T11:44:24.536Z,69.83
2022-11-12T11:47:34.283Z,69.45
2022-11-12T11:50:25.683Z,69.00
2022-11-12T11:53:09.233Z,68.62
2022-11-12T11:55:42.432Z,68.22
2022-11-12T11:58:49.885Z,68.40
2022-11-12T12:01:35.269Z,67.86
2022-11-12T12:04:33.891Z,67.90
2022-11-12T12:07:12.535Z,67.30
2022-11-12T12:09:53.018Z,66.93
2022-11-12T12:12:26.714Z,66.50
2022-11-12T12:15:17.810Z,66.43
2022-11-12T12:18:06.730Z,66.20
2022-11-12T12:20:43.429Z,66.26
2022-11-12T12:23:23.610Z,65.96
2022-11-12T12:25:56.115Z,65.50
2022-11-12T12:28:52.659Z,65.65
2022-11-12T12:31:24.830Z,65.46
2022-11-12T12:33:56.828Z,65.06
2022-11-12T12:36:39.926Z,65.32
2022-11-12T12:39:34.840Z,65.09
2022-11-12T12:42:22.147Z,65.22
2022-11-12T12:45:05.049Z,65.28
2022-11-12T12:47:38.301Z,65.80
2022-11-12T12:50:11.877Z,65.77
2022-11-12T12:53:15.639Z,65.77
2022-11-12T12:55:46.921Z,65.39
2022-11-12T12:58:22.132Z,65.13
2022-11-12T13:00:51.431Z,65.02
2022-11-12T13:03:42.864Z,65.09
2022-11-12T13:06:22.098Z,64.87
2022-11-12T13:09:03.019Z,65.21
2022-11-12T13:12:00.429Z,65.35
2022-11-12T13:14:36.004Z,65.55
2022-11-12T13:17:08.509Z,65.30
2022-11-12T13:19:45.607Z,65.64
2022-11-12T13:22:18.465Z,65.41
2022-11-12T13:25:00.315Z,65.51
2022-11-12T13:27:45.106Z,65.91
2022-11-12T13:30:14.365Z,65.73
2022-11-12T13:32:44.109Z,65.97
2022-11-12T13:35:22.995Z,66.06
2022-11-12T13:37:52.756Z,66.19
2022-11-12T13:40:19.254Z,64.71
2022-11-12T13:42:49.218Z,65.50
2022-11-12T13:45:22.394Z,65.81
2022-11-12T13:47:49.164Z,66.18
2022-11-12T13:50:24.962Z,66.38
2022-11-12T13:52:54.709Z,66.49
2022-11-12T13:55:22.734Z,66.53
2022-11-12T13:57:54.729Z,66.86
2022-11-12T14:00:28.965Z,67.05
2022-11-12T14:03:02.420Z,67.06
2022-11-12T14:05:33.648Z,67.12
2022-11-12T14:08:20.718Z,67.30
2022-11-12T14:11:11.310Z,67.52
2022-11-12T14:13:56.274Z,67.60
2022-11-12T14:16:35.243Z,67.87
2022-11-12T14:19:20.901Z,68.08
2022-11-12T14:22:02.135Z,68.18
2022-11-12T14:24:28.939Z,68.24
2022-11-12T14:26:57.859Z,68.47
2022-11-12T14:29:26.754Z,68.74
2022-11-12T14:32:02.296Z,68.46
2022-11-12T14:34:33.642Z,68.78
2022-11-12T14:37:01.297Z,68.97
2022-11-12T14:39:31.650Z,68.92
2022-11-12T14:42:01.574Z,68.13
2022-11-12T14:44:36.941Z,68.45
2022-11-12T14:47:04.413Z,69.08
2022-11-12T14:49:44.856Z,69.21
2022-11-12T14:52:26.747Z,69.51
2022-11-12T14:55:00.824Z,69.51
2022-11-12T14:57:30.061Z,69.54
2022-11-12T14:59:57.402Z,69.57
2022-11-12T15:02:47.289Z,69.74
2022-11-12T15:05:21.050Z,70.03
2022-11-12T15:08:02.514Z,70.15
2022-11-12T15:10:31.985Z,70.22
2022-11-12T15:13:24.451Z,70.61
2022-11-12T15:15:55.933Z,70.59
2022-11-12T15:18:29.560Z,70.51
2022-11-12T15:21:19.395Z,70.89
2022-11-12T15:24:03.694Z,71.28
2022-11-12T15:26:36.396Z,70.51
2022-11-12T15:29:27.741Z,71.28
2022-11-12T15:32:01.136Z,71.56
2022-11-12T15:34:48.058Z,71.96
2022-11-12T15:37:19.623Z,72.14
2022-11-12T15:39:52.673Z,72.42
2022-11-12T15:42:27.838Z,72.70
2022-11-12T15:45:00.475Z,73.09
2022-11-12T15:47:27.292Z,73.57
2022-11-12T15:49:56.618Z,73.80
2022-11-12T15:52:23.307Z,74.10
2022-11-12T15:54:50.141Z,74.18
2022-11-12T15:57:29.093Z,74.26
2022-11-12T16:00:07.893Z,74.61
2022-11-12T16:02:35.511Z,74.88
2022-11-12T16:05:04.684Z,75.46
2022-11-12T16:07:33.438Z,75.73
2022-11-12T16:10:00.160Z,75.66
2022-11-12T16:12:27.625Z,76.17
2022-11-12T16:14:54.367Z,76.28
2022-11-12T16:17:21.305Z,76.56
2022-11-12T16:19:47.902Z,76.62
2022-11-12T16:22:14.408Z,76.86
2022-11-12T16:24:44.146Z,76.92
2022-11-12T16:27:16.856Z,76.86
2022-11-12T16:29:45.518Z,77.24
2022-11-12T16:32:13.966Z,77.47
2022-11-12T16:34:48.218Z,77.46
2022-11-12T16:37:16.054Z,77.70
2022-11-12T16:39:42.592Z,78.31
2022-11-12T16:42:12.593Z,78.39
2022-11-12T16:44:39.099Z,78.49
2022-11-12T16:47:05.670Z,78.52
2022-11-12T16:49:35.891Z,78.52
2022-11-12T16:52:05.238Z,78.53
2022-11-12T16:54:31.939Z,78.64
2022-11-12T16:56:58.573Z,79.18
2022-11-12T16:59:27.435Z,78.98
2022-11-12T17:01:53.998Z,79.28
2022-11-12T17:04:20.651Z,79.18
2022-11-12T17:06:47.191Z,79.32
2022-11-12T17:09:16.255Z,79.35
2022-11-12T17:11:43.048Z,79.36
2022-11-12T17:14:10.993Z,79.57
2022-11-12T17:16:39.805Z,79.57
2022-11-12T17:19:06.500Z,79.65
2022-11-12T17:21:33.082Z,79.86
2022-11-12T17:23:59.590Z,79.92
2022-11-12T17:26:26.160Z,79.89
2022-11-12T17:28:58.570Z,79.93
2022-11-12T17:31:28.089Z,79.95
2022-11-12T17:33:56.832Z,79.60
2022-11-12T17:36:25.911Z,80.03
2022-11-12T17:38:57.162Z,80.32
2022-11-12T17:41:23.991Z,80.34
2022-11-12T17:43:57.405Z,80.40
2022-11-12T17:46:23.985Z,80.23
2022-11-12T17:48:51.246Z,80.59
2022-11-12T17:51:20.528Z,80.59
2022-11-12T17:53:47.267Z,80.78
2022-11-12T17:56:16.324Z,80.85
2022-11-12T17:58:45.372Z,80.99
2022-11-12T18:01:15.310Z,80.79
2022-11-12T18:03:44.066Z,80.81
2022-11-12T18:06:16.578Z,80.71
2022-11-12T18:08:43.579Z,80.74
2022-11-12T18:11:14.370Z,80.87
2022-11-12T18:13:41.126Z,80.89
2022-11-12T18:16:16.389Z,80.82
2022-11-12T18:18:46.479Z,81.01
2022-11-12T18:21:13.326Z,81.12
2022-11-12T18:23:42.179Z,81.07
2022-11-12T18:26:08.789Z,81.35
2022-11-12T18:28:35.702Z,81.41
2022-11-12T18:31:04.454Z,81.67
2022-11-12T18:33:31.572Z,81.83
2022-11-12T18:36:06.783Z,81.83
2022-11-12T18:38:34.787Z,81.66
2022-11-12T18:41:10.070Z,82.27
2022-11-12T18:43:37.215Z,81.87
2022-11-12T18:46:04.804Z,81.91
2022-11-12T18:48:33.426Z,82.55
2022-11-12T18:51:02.516Z,82.38
2022-11-12T18:53:32.250Z,82.82
2022-11-12T18:56:02.133Z,82.79
2022-11-12T18:58:34.628Z,83.27
2022-11-12T19:01:10.413Z,83.20
2022-11-12T19:03:37.431Z,82.76
2022-11-12T19:06:07.261Z,82.81
2022-11-12T19:08:36.661Z,82.93
2022-11-12T19:11:05.891Z,82.95
2022-11-12T19:13:32.729Z,82.86
2022-11-12T19:16:07.482Z,82.96
2022-11-12T19:18:37.674Z,83.30
2022-11-12T19:21:07.691Z,83.06
2022-11-12T19:23:34.809Z,83.01
2022-11-12T19:26:02.767Z,83.14
2022-11-12T19:28:30.381Z,82.81
2022-11-12T19:31:03.703Z,83.23
2022-11-12T19:33:30.289Z,83.06
2022-11-12T19:36:06.734Z,83.20
2022-11-12T19:38:33.994Z,83.10
2022-11-12T19:41:17.769Z,83.21
2022-11-12T19:43:45.846Z,83.63
2022-11-12T19:46:12.422Z,83.11
2022-11-12T19:48:39.349Z,83.65
2022-11-12T19:51:08.753Z,83.53
2022-11-12T19:53:38.509Z,83.62
2022-11-12T19:56:06.685Z,83.50
2022-11-12T19:58:34.280Z,83.85
2022-11-12T20:01:06.209Z,84.03
2022-11-12T20:03:35.557Z,83.49
2022-11-12T20:06:05.093Z,84.37
2022-11-12T20:08:34.124Z,83.80
2022-11-12T20:11:01.791Z,83.86
2022-11-12T20:13:28.508Z,83.95
2022-11-12T20:15:55.266Z,84.28
2022-11-12T20:18:21.867Z,84.00
2022-11-12T20:20:51.039Z,84.39
2022-11-12T20:23:17.871Z,84.11
2022-11-12T20:25:44.357Z,84.24
2022-11-12T20:28:11.778Z,84.36
2022-11-12T20:30:38.471Z,84.34
2022-11-12T20:33:05.209Z,84.44
2022-11-12T20:35:40.063Z,84.17
2022-11-12T20:38:09.130Z,84.16
2022-11-12T20:40:35.681Z,84.70
2022-11-12T20:43:02.498Z,84.19
2022-11-12T20:45:31.318Z,84.37
2022-11-12T20:47:57.969Z,84.56
2022-11-12T20:50:24.776Z,84.37
2022-11-12T20:52:54.074Z,84.41
2022-11-12T20:55:20.723Z,84.64
2022-11-12T20:57:47.617Z,84.43
2022-11-12T21:00:22.896Z,84.84
2022-11-12T21:02:50.628Z,84.77
2022-11-12T21:05:19.639Z,84.97
2022-11-12T21:07:51.292Z,84.51
2022-11-12T21:10:20.336Z,84.66
2022-11-12T21:12:46.788Z,85.06
2022-11-12T21:15:16.022Z,85.00
2022-11-12T21:17:42.538Z,84.98
2022-11-12T21:20:09.535Z,85.14
2022-11-12T21:22:36.385Z,85.24
2022-11-12T21:25:03.083Z,84.88
2022-11-12T21:27:31.915Z,84.79
2022-11-12T21:29:58.938Z,85.11
2022-11-12T21:32:25.663Z,84.83
2022-11-12T21:34:58.581Z,84.96
2022-11-12T21:37:27.637Z,84.93
2022-11-12T21:39:54.123Z,84.83
2022-11-12T21:42:20.676Z,84.94
2022-11-12T21:44:47.523Z,85.22
2022-11-12T21:47:14.424Z,85.45
2022-11-12T21:49:43.227Z,85.36
2022-11-12T21:52:12.699Z,85.33
2022-11-12T21:54:40.254Z,84.98
2022-11-12T21:57:07.029Z,85.50
2022-11-12T21:59:33.613Z,85.50
2022-11-12T22:02:00.109Z,85.15
2022-11-12T22:04:29.341Z,85.57
2022-11-12T22:06:55.849Z,85.41
2022-11-12T22:09:22.364Z,85.41
2022-11-12T22:11:48.923Z,85.48
2022-11-12T22:14:15.795Z,85.61
2022-11-12T22:16:42.469Z,85.48
2022-11-12T22:19:09.740Z,85.93
2022-11-12T22:21:39.895Z,86.50
2022-11-12T22:24:07.524Z,86.32
2022-11-12T22:26:34.400Z,86.78
2022-11-12T22:29:01.137Z,86.75
2022-11-12T22:31:29.809Z,86.46
2022-11-12T22:33:58.310Z,86.83
2022-11-12T22:36:27.421Z,87.19
2022-11-12T22:38:54.860Z,86.84
2022-11-12T22:41:34.042Z,87.16
2022-11-12T22:44:02.772Z,86.90
2022-11-12T22:46:34.825Z,87.04
2022-11-12T22:49:03.693Z,87.05
2022-11-12T22:51:31.850Z,87.18
2022-11-12T22:54:01.231Z,87.29
2022-11-12T22:56:28.950Z,87.40
2022-11-12T22:58:58.475Z,87.13
2022-11-12T23:01:28.078Z,87.59
2022-11-12T23:03:57.339Z,87.50
2022-11-12T23:06:25.244Z,87.40
2022-11-12T23:08:53.486Z,87.69
2022-11-12T23:11:21.029Z,87.82
2022-11-12T23:13:48.409Z,87.55
2022-11-12T23:16:18.011Z,87.88
2022-11-12T23:18:47.412Z,87.61
2022-11-12T23:21:23.831Z,87.79
2022-11-12T23:23:50.959Z,87.98
2022-11-12T23:26:23.066Z,88.13
2022-11-12T23:28:50.589Z,87.75
2022-11-12T23:31:22.987Z,87.84
2022-11-12T23:33:55.122Z,87.59
2022-11-12T23:36:23.463Z,87.67
2022-11-12T23:38:51.239Z,87.57
2022-11-12T23:41:22.983Z,87.47
2022-11-12T23:43:50.312Z,87.56
2022-11-12T23:46:19.092Z,87.50
2022-11-12T23:48:46.038Z,87.39
2022-11-12T23:51:24.723Z,87.31
2022-11-12T23:53:51.420Z,87.04
2022-11-12T23:56:19.968Z,87.27
2022-11-12T23:58:46.921Z,86.92
